Tiempo atmosférico en la estación meteorológica de Carrión De Los Céspedes, Sevilla (76 m.)



Fecha
DESCASC
Temp. máxima en grados centígrados (hora)
DESCASC
Temp. mínima en grados centígrados (hora)
DESCASC
Temp. media en grados centígrados
DESCASC
Racha de viento máxima en m/sg (hora)
DESCASC
Velocidad máxima media en intervalos de 10 minutos(hora)
DESCASC
Precipitaciones diarias en mm
DESCASC
Precipitaciones de 00:00 a 06:00 en mm
DESCASC
Precipitaciones de 06:00 a 12:00 en mm
DESCASC
Precipitaciones de 12:00 a 18:00 en mm
DESCASC
Precipitaciones de 18:00 a 24:00 en mm
DESCASC
23-05-2018 25.5 (18:00) 12.4 (06:10) 18.9 5.56 (15:10) 3.33 (14:50) 1.2 0 0 1.2 0
22-05-2018 26.3 (17:50) 15.8 (06:00) 21 5.28 (18:50) 3.33 (19:30) 0 0 0 0 0
21-05-2018 25.3 (16:50) 13 (07:50) 19.1 7.78 (16:50) 4.44 (17:00) 0 0 0 0 0
20-05-2018 24.1 (14:30) 11.5 (00:00) 17.8 9.72 (15:30) 5 (15:50) 0 0 0 0 0
19-05-2018 28.7 (17:20) 13.2 (07:10) 21 11.67 (19:50) 6.67 (19:50) 2 0 0 0 2
18-05-2018 27.5 (16:40) 12.4 (00:00) 19.9 8.89 (18:40) 4.72 (18:40) 0 0 0 0 0
17-05-2018 29.5 (17:00) 12 (00:00) 20.8 10 (21:30) 6.39 (18:40) 0 0 0 0 0
16-05-2018 29.8 (17:30) 9.4 (00:00) 19.6 10 (17:00) 5.56 (17:40) 0 0 0 0 0
15-05-2018 29.2 (17:50) 15.5 (00:00) 22.4 10.28 (11:00) 6.67 (10:40) 0 0 0 0 0
14-05-2018 27.9 (17:10) 9 (00:00) 18.4 8.33 (11:20) 4.17 (19:20) 0 0 0 0 0
13-05-2018 23.7 (18:20) 6.8 (00:00) 15.3 8.61 (14:50) 4.44 (16:10) 0 0 0 0 0
12-05-2018 23.8 (16:50) 10.2 (00:00) 17 10.28 (18:00) 6.67 (17:40) 0 0 0 0 0
11-05-2018 24.8 (16:40) 9 (05:30) 16.9 7.78 (17:00) 4.17 (18:10) 0 0 0 0 0
10-05-2018 23.2 (16:20) 12.6 (00:00) 17.9 7.22 (16:20) 4.17 (19:00) 0 0 0 0 0
09-05-2018 23.6 (17:50) 16.2 (00:00) 19.9 8.61 (19:20) 5.56 (18:50) 0.4 0.2 0.2 0 0
08-05-2018 26.2 (15:30) 12.3 (00:00) 19.3 8.06 (15:40) 4.44 (17:10) 2.4 0 2.2 0 0.2
07-05-2018 27.8 (16:50) 12.3 (00:00) 20 7.78 (17:40) 4.72 (17:40) 0 0 0 0 0
06-05-2018 28.4 (17:40) 11.5 (00:00) 19.9 9.72 (15:20) 5.83 (13:10) 0 0 0 0 0
05-05-2018 27.3 (18:50) 9.3 (00:00) 18.3 5 (17:20) 3.33 (21:00) 0 0 0 0 0
04-05-2018 25.9 (16:50) 10.4 (00:00) 18.1 10.28 (19:00) 6.67 (19:00) 0 0 0 0 0
03-05-2018 25.2 (16:20) 6.7 (00:00) 16 8.61 (18:50) 5.83 (19:10) 0 0 0 0 0
02-05-2018 21.4 (17:20) 5.4 (00:00) 13.4 8.33 (19:10) 5.28 (19:30) 0 0 0 0 0
01-05-2018 19.6 (15:20) 6.6 (07:40) 13.1 12.22 (15:50) 5.56 (18:10) 2 0 0 2 0
30-04-2018 18.6 (19:10) 5.2 (00:00) 11.9 8.33 (20:50) 5.56 (20:50) 0 0 0 0 0
29-04-2018 18.3 (15:30) 7.5 (00:00) 12.9 13.06 (14:30) 6.67 (14:30) 1.4 0 0 1.4 0
28-04-2018 19.3 (15:10) 10.3 (00:00) 14.8 11.11 (18:50) 7.22 (17:50) 0.4 0 0 0 0.4

Gráficas

Temp. máximas Temp. mínimas Temp. medias Precipitaciones Rachas de viento máximas Velocidades máximas media en intervalos de 10 minutos

Datos horarios

Fecha y hora oficial Temperatura (ºC) Velocidad del viento (km/h) Dirección del viento Racha (km/h) Dirección de racha Precipitación (mm) Presión (hPa) Tendencia (hPa) Humedad (%)
2018-05-27 23:00:00 17.6 0 Calma 6 Sudoeste 0 -- -- 80
2018-05-27 22:00:00 18.7 3 Sudoeste 19 Sudoeste 0 -- -- 75
2018-05-27 21:00:00 20.4 12 Sudoeste 23 Oeste 0 -- -- 67
2018-05-27 20:00:00 21.7 17 Oeste 30 Oeste 0 -- -- 63
2018-05-27 19:00:00 23.4 17 Sudoeste 30 Sudoeste 0 -- -- 57
2018-05-27 18:00:00 24.1 18 Sudoeste 29 Sur 0 -- -- 56
2018-05-27 17:00:00 24.5 15 Oeste 30 Sudoeste 0 -- -- 55
2018-05-27 16:00:00 23.1 14 Oeste 26 Oeste 0 -- -- 58
2018-05-27 15:00:00 22.8 15 Oeste 23 Sudoeste 0 -- -- 61
2018-05-27 14:00:00 22.2 10 Sudoeste 18 Sudoeste 0 -- -- 66
2018-05-27 13:00:00 21.8 8 Oeste 15 Oeste 0 -- -- 66
2018-05-27 12:00:00 20 6 Oeste 15 Oeste 0 -- -- 75
2018-05-27 11:00:00 18.2 6 Sudoeste 16 Oeste 0 -- -- 88
2018-05-27 10:00:00 15.8 2 Este 5 Sudeste 0 -- -- 99
2018-05-27 09:00:00 14.2 2 Nordeste 6 Oeste 0 -- -- 99
2018-05-27 08:00:00 12.6 4 Noroeste 5 Noroeste 0 -- -- 99
2018-05-27 07:00:00 12.6 0 Calma 4 Este 0 -- -- 98
2018-05-27 06:00:00 12 0 Calma 3 Sudeste 0 -- -- 96
2018-05-27 05:00:00 12.9 0 Calma 4 Sudeste 0 -- -- 96
2018-05-27 04:00:00 13.8 0 Calma 6 Norte 0 -- -- 96
2018-05-27 03:00:00 14.2 0 Calma 5 Oeste 0 -- -- 96
2018-05-27 02:00:00 14.4 2 Noroeste 10 Oeste 0 -- -- 94
2018-05-27 01:00:00 15.3 5 Noroeste 8 Noroeste 0 -- -- 93
2018-05-27 00:00:00 16 0 Calma 9 Oeste 0 -- -- 88
2018-05-26 23:00:00 17.2 4 Oeste 8 Sudoeste 0 -- -- 84
2018-05-26 22:00:00 20.1 3 Oeste 10 Oeste 0 -- -- 73
2018-05-26 21:00:00 22.5 6 Sudoeste 15 Oeste 0 -- -- 62
2018-05-26 20:00:00 23 9 Sudoeste 16 Oeste 0 -- -- 60
2018-05-26 19:00:00 23.1 9 Sudoeste 17 Sudoeste 0 -- -- 59
2018-05-26 18:00:00 22.9 6 Oeste 16 Oeste 0 -- -- 58
2018-05-26 17:00:00 21.8 11 Oeste 18 Oeste 0 -- -- 63
2018-05-26 16:00:00 20.2 8 Sudoeste 18 Sudeste 0 -- -- 75
2018-05-26 15:00:00 21.7 4 Sur 13 Sur 0 -- -- 63
2018-05-26 14:00:00 20.5 4 Sur 9 Sur 0 -- -- 72
2018-05-26 13:00:00 19.9 5 Sudeste 13 Sudeste 0 -- -- 74
2018-05-26 12:00:00 18.8 3 Este 8 Sudeste 0 -- -- 82
2018-05-26 11:00:00 16.9 4 Sur 8 Sudeste 0 -- -- 97
2018-05-26 10:00:00 15.7 4 Sudeste 9 Sudeste 2 -- -- 98
2018-05-26 09:00:00 15.3 5 Sudeste 11 Sudeste 0.2 -- -- 98
2018-05-26 08:00:00 14.8 3 Sudeste 6 Sudeste 0 -- -- 98
2018-05-26 07:00:00 14.4 0 Calma 3 Sudeste 0 -- -- 98
2018-05-26 06:00:00 13.8 0 Calma 4 Noroeste 0 -- -- 97
2018-05-26 05:00:00 13.5 0 Calma 4 Noroeste 0 -- -- 96
2018-05-26 04:00:00 14.3 0 Calma 4 Sur 0 -- -- 95
2018-05-26 03:00:00 14.4 0 Calma 6 Oeste 0 -- -- 95
2018-05-26 02:00:00 15.3 5 Oeste 7 Oeste 0 -- -- 93
2018-05-26 01:00:00 15.8 0 Calma 5 Este 0 -- -- 92
2018-05-26 00:00:00 15.9 2 Sudeste 5 Sudeste 0 -- -- 91
2018-05-25 23:00:00 16.1 3 Sudoeste 10 Sudoeste 0 -- -- 89
2018-05-25 22:00:00 17 4 Sudoeste 15 Sudoeste 0 -- -- 83
2018-05-25 21:00:00 18.7 12 Sudoeste 27 Sudoeste 0 -- -- 73
2018-05-25 20:00:00 20.4 13 Sudoeste 27 Sudoeste 0 -- -- 64
2018-05-25 19:00:00 21.2 14 Sudoeste 32 Sudoeste 0 -- -- 61
2018-05-25 18:00:00 22 18 Sudoeste 29 Sur 0 -- -- 56
2018-05-25 17:00:00 22.2 18 Sudoeste 35 Sur 0 -- -- 60
2018-05-25 16:00:00 20.9 15 Sudoeste 29 Sur 0 -- -- 63
2018-05-25 15:00:00 20.9 7 Sudoeste 28 Sudoeste 0.8 -- -- 72
2018-05-25 14:00:00 21.1 14 Sudoeste 27 Sur 0 -- -- 67
2018-05-25 13:00:00 19 7 Sudoeste 22 Sudeste 0.2 -- -- 73
2018-05-25 12:00:00 18.4 8 Sur 17 Sur 0 -- -- 78
2018-05-25 11:00:00 18.4 6 Sudoeste 13 Sudoeste 0 -- -- 79
2018-05-25 10:00:00 16 4 Sur 10 Sudeste 0 -- -- 96
2018-05-25 09:00:00 15 5 Sudeste 10 Sudeste 0 -- -- 99
2018-05-25 08:00:00 14.5 4 Sudeste 9 Este 0 -- -- 99
2018-05-25 07:00:00 14.2 5 Este 13 Este 0 -- -- 99
2018-05-25 06:00:00 13.8 3 Nordeste 9 Nordeste 0 -- -- 99
2018-05-25 05:00:00 14.2 2 Norte 8 Este 1.2 -- -- 98
2018-05-25 04:00:00 13.3 0 Calma 4 Norte 0 -- -- 97
2018-05-25 03:00:00 12.7 3 Oeste 5 Noroeste 0 -- -- 96
2018-05-25 02:00:00 12.9 3 Noroeste 7 Sudeste 0 -- -- 95
2018-05-25 01:00:00 14.2 0 Calma 6 Sur 0 -- -- 92
2018-05-25 00:00:00 14.9 2 Este 12 Sudoeste 0 -- -- 91
2018-05-24 23:00:00 15.5 8 Sudoeste 14 Oeste 0 -- -- 91
2018-05-24 22:00:00 16.2 4 Sudoeste 14 Sudoeste 0 -- -- 85
2018-05-24 21:00:00 18.1 8 Sudoeste 17 Sur 0 -- -- 80
2018-05-24 20:00:00 17.5 6 Sur 14 Sur 0.2 -- -- 89
2018-05-24 19:00:00 17.6 8 Sur 16 Sudoeste 0 -- -- 83
2018-05-24 18:00:00 16.9 7 Sudoeste 18 Oeste 0 -- -- 87
2018-05-24 17:00:00 17.2 10 Sudoeste 25 Oeste 0.4 -- -- 89
2018-05-24 16:00:00 19.7 17 Sudoeste 23 Oeste 0 -- -- 77
2018-05-24 15:00:00 20.1 15 Oeste 23 Oeste 0 -- -- 73
2018-05-24 14:00:00 20.3 13 Oeste 23 Oeste 0 -- -- 74
2018-05-24 13:00:00 20.6 13 Sudoeste 21 Sudoeste 0 -- -- 73
2018-05-24 12:00:00 19.1 8 Sudoeste 18 Sudoeste 0 -- -- 81
2018-05-24 11:00:00 18.5 11 Sur 18 Sur 0 -- -- 82
2018-05-24 10:00:00 17.5 5 Sur 10 Sudoeste 0 -- -- 92
2018-05-24 09:00:00 16.5 6 Sur 12 Sur 0 -- -- 95
2018-05-24 08:00:00 15.9 6 Sudoeste 17 Nordeste 0.4 -- -- 93
2018-05-24 07:00:00 16.2 6 Nordeste 12 Este 0.8 -- -- 93
2018-05-24 06:00:00 15.6 0 Calma 9 Sudoeste 0.6 -- -- 95
2018-05-24 05:00:00 15.5 0 Calma 8 Noroeste 0 -- -- 92
2018-05-24 04:00:00 15.6 3 Noroeste 9 Norte 0 -- -- 91
2018-05-24 03:00:00 16.6 4 Noroeste 15 Oeste 0 -- -- 80
2018-05-24 02:00:00 17 0 Calma 8 Sudoeste 0 -- -- 81
2018-05-24 01:00:00 18.1 3 Sur 9 Sudoeste 0 -- -- 76
2018-05-24 00:00:00 19.3 6 Oeste 11 Oeste 0 -- -- 72
2018-05-23 23:00:00 20 4 Oeste 8 Oeste 0 -- -- 74
2018-05-23 22:00:00 20.8 3 Noroeste 9 Sudoeste 0 -- -- 71
2018-05-23 21:00:00 21.9 5 Noroeste 20 Oeste 0 -- -- 66
2018-05-23 20:00:00 23.8 12 Noroeste 18 Oeste 0 -- -- 59
2018-05-23 19:00:00 24.9 4 Noroeste 13 Noroeste 0 -- -- 49
2018-05-23 18:00:00 25.5 4 Noroeste 14 Norte 0 -- -- 47
2018-05-23 17:00:00 25.2 5 Norte 13 Noroeste 0 -- -- 50
2018-05-23 16:00:00 24.1 6 Oeste 20 Noroeste 0 -- -- 57
2018-05-23 15:00:00 21.8 7 Oeste 19 Oeste 0.2 -- -- 76
2018-05-23 14:00:00 19.5 8 Oeste 17 Sudoeste 0.8 -- -- 83
2018-05-23 13:00:00 22.6 5 Sudoeste 10 Sudoeste 0.2 -- -- 64
2018-05-23 12:00:00 23 3 Este 11 Este 0 -- -- 58
2018-05-23 11:00:00 21.1 5 Nordeste 9 Nordeste 0 -- -- 67
2018-05-23 10:00:00 18.5 4 Nordeste 8 Nordeste 0 -- -- 81
2018-05-23 09:00:00 15.7 0 Calma 4 Oeste 0 -- -- 93
2018-05-23 08:00:00 13.3 2 Noroeste 5 Oeste 0 -- -- 94
2018-05-23 07:00:00 12.7 3 Noroeste 6 Oeste 0 -- -- 95
2018-05-23 06:00:00 12.5 5 Noroeste 8 Noroeste 0 -- -- 94
2018-05-23 05:00:00 12.9 0 Calma 4 Sudeste 0 -- -- 93
2018-05-23 04:00:00 13.2 4 Noroeste 7 Noroeste 0 -- -- 91
2018-05-23 03:00:00 14.1 4 Noroeste 8 Noroeste 0 -- -- 91
2018-05-23 02:00:00 14.6 0 Calma 9 Norte 0 -- -- 89
2018-05-23 01:00:00 15.4 4 Norte 8 Norte 0 -- -- 86
2018-05-23 00:00:00 16.4 2 Noroeste 6 Norte 0 -- -- 83
2018-05-22 23:00:00 17.8 0 Calma 5 Noroeste 0 -- -- 78
2018-05-22 22:00:00 20.7 4 Noroeste 12 Noroeste 0 -- -- 66
2018-05-22 21:00:00 23.7 9 Noroeste 17 Oeste 0 -- -- 57
2018-05-22 20:00:00 24 11 Oeste 18 Oeste 0 -- -- 57
2018-05-22 19:00:00 26 12 Sudoeste 19 Oeste 0 -- -- 50
2018-05-22 18:00:00 26.3 6 Sur 15 Sudoeste 0 -- -- 43
2018-05-22 17:00:00 25.6 4 Este 14 Oeste 0 -- -- 46
2018-05-22 16:00:00 24.9 5 Sur 16 Sudeste 0 -- -- 48
2018-05-22 15:00:00 23.9 6 Sudoeste 17 Sur 0 -- -- 51
2018-05-22 14:00:00 22.3 4 Sudoeste 16 Este 0 -- -- 56
2018-05-22 13:00:00 20.5 3 Norte 16 Sudeste 0 -- -- 61
2018-05-22 12:00:00 19.7 7 Sur 16 Sudeste 0 -- -- 64
2018-05-22 11:00:00 18 3 Sur 8 Sudeste 0 -- -- 71
2018-05-22 10:00:00 17 3 Sudeste 10 Sudoeste 0 -- -- 75
2018-05-22 09:00:00 16.3 5 Sudoeste 11 Sudoeste 0 -- -- 77
2018-05-22 08:00:00 16 3 Sudeste 7 Sudeste 0 -- -- 79
2018-05-22 07:00:00 15.8 3 Sudeste 9 Sudoeste 0 -- -- 81
2018-05-22 06:00:00 15.8 3 Sudoeste 9 Sudoeste 0 -- -- 80
2018-05-22 05:00:00 16.1 4 Oeste 10 Oeste 0 -- -- 81
2018-05-22 04:00:00 16.3 4 Sudeste 9 Sudoeste 0 -- -- 84
2018-05-22 03:00:00 16.3 3 Sudoeste 8 Sudoeste 0 -- -- 84
2018-05-22 02:00:00 16.4 3 Sudoeste 13 Sudoeste 0 -- -- 84
2018-05-22 01:00:00 16.3 4 Sudoeste 13 Sudoeste 0 -- -- 86
2018-05-22 00:00:00 16.3 4 Sur 8 Sur 0 -- -- 88
2018-05-21 23:00:00 16.6 4 Sur 12 Sudoeste 0 -- -- 86
2018-05-21 22:00:00 18.2 9 Sudoeste 21 Sudoeste 0 -- -- 80
2018-05-21 21:00:00 20.5 11 Sudoeste 22 Oeste 0 -- -- 74
2018-05-21 20:00:00 21.1 8 Norte 14 Nordeste 0 -- -- 65
2018-05-21 19:00:00 22.1 11 Este 28 Sur 0 -- -- 60
2018-05-21 18:00:00 25.2 14 Sur 27 Sudoeste 0 -- -- 56
2018-05-21 17:00:00 25.3 16 Sudoeste 28 Sur 0 -- -- 52
2018-05-21 16:00:00 24.6 14 Sudoeste 25 Sur 0 -- -- 54
2018-05-21 15:00:00 24.1 13 Sur 22 Sudoeste 0 -- -- 57
2018-05-21 14:00:00 23.9 12 Sur 22 Sudeste 0 -- -- 54
2018-05-21 13:00:00 23.2 8 Sudoeste 17 Sudoeste 0 -- -- 54
2018-05-21 12:00:00 21.5 5 Sur 12 Sur 0 -- -- 61
2018-05-21 11:00:00 18.9 4 Este 7 Nordeste 0 -- -- 78
2018-05-21 10:00:00 17.1 3 Este 9 Nordeste 0 -- -- 89
2018-05-21 09:00:00 16.6 7 Nordeste 12 Nordeste 0 -- -- 91
2018-05-21 08:00:00 13.1 0 Calma 3 Noroeste 0 -- -- 96
2018-05-21 07:00:00 13.9 0 Calma 3 Norte 0 -- -- 96
2018-05-21 06:00:00 14.2 0 Calma 4 Oeste 0 -- -- 97
2018-05-21 05:00:00 14.2 4 Noroeste 5 Noroeste 0 -- -- 95
2018-05-21 04:00:00 14.8 0 Calma 5 Oeste 0 -- -- 95
2018-05-21 03:00:00 15.2 4 Oeste 9 Norte 0 -- -- 96
2018-05-21 02:00:00 14.7 2 Oeste 5 Norte 0 -- -- 95
2018-05-21 01:00:00 14.7 3 Norte 5 Nordeste 0 -- -- 93
2018-05-21 00:00:00 15.9 2 Oeste 8 Norte 0 -- -- 91
2018-05-20 23:00:00 17 3 Norte 8 Norte 0 -- -- 87
2018-05-20 22:00:00 18.6 5 Sur 10 Sudeste 0 -- -- 81
2018-05-20 21:00:00 19.6 0 Calma 9 Sur 0 -- -- 73
2018-05-20 20:00:00 19.9 5 Sudoeste 18 Sudoeste 0 -- -- 74
2018-05-20 19:00:00 20.1 9 Sudoeste 23 Oeste 0 -- -- 74
2018-05-20 18:00:00 20.8 9 Oeste 23 Noroeste 0 -- -- 67
2018-05-20 17:00:00 19.8 10 Oeste 16 Nordeste 0 -- -- 82
2018-05-20 16:00:00 20.7 10 Norte 35 Nordeste 0 -- -- 69
2018-05-20 15:00:00 23.4 13 Nordeste 25 Nordeste 0 -- -- 55
2018-05-20 14:00:00 23.4 7 Nordeste 16 Este 0 -- -- 64
2018-05-20 13:00:00 22.6 3 Nordeste 10 Este 0 -- -- 64
2018-05-20 12:00:00 21.2 3 Nordeste 11 Sudeste 0 -- -- 65
2018-05-20 11:00:00 20.6 2 Nordeste 8 Noroeste 0 -- -- 72
2018-05-20 10:00:00 18.2 2 Nordeste 8 Norte 0 -- -- 82
2018-05-20 09:00:00 14.5 2 Sudoeste 6 Oeste 0 -- -- 98
2018-05-20 08:00:00 12 6 Oeste 9 Oeste 0 -- -- 98
2018-05-20 07:00:00 11.9 0 Calma 6 Norte 0 -- -- 97
2018-05-20 06:00:00 12 4 Noroeste 5 Noroeste 0 -- -- 96
2018-05-20 05:00:00 12.9 0 Calma 4 Este 0 -- -- 96
2018-05-20 04:00:00 13.7 0 Calma 3 Sudoeste 0 -- -- 96
2018-05-20 03:00:00 14.2 2 Sudoeste 7 Oeste 0 -- -- 95
2018-05-20 02:00:00 15.4 2 Sudeste 8 Sudeste 0 -- -- 95
2018-05-20 01:00:00 15.6 5 Sudeste 9 Sudeste 0 -- -- 94
2018-05-20 00:00:00 16 4 Noroeste 10 Noroeste 0 -- -- 91
2018-05-19 23:00:00 16.3 6 Norte 15 Norte 0 -- -- 91
2018-05-19 22:00:00 16.7 6 Noroeste 11 Noroeste 0.2 -- -- 93
2018-05-19 21:00:00 17.9 6 Oeste 31 Sudeste 1.8 -- -- 90
2018-05-19 20:00:00 19.1 19 Sudeste 42 Sudeste 0 -- -- 79
2018-05-19 19:00:00 26 13 Sudoeste 37 Oeste 0 -- -- 45
2018-05-19 18:00:00 28 20 Oeste 33 Oeste 0 -- -- 39
2018-05-19 17:00:00 28.3 6 Sur 17 Sudeste 0 -- -- 36
2018-05-19 16:00:00 27.4 6 Noroeste 14 Sur 0 -- -- 38
2018-05-19 15:00:00 27.2 7 Este 26 Sudeste 0 -- -- 36
2018-05-19 14:00:00 26 9 Este 25 Nordeste 0 -- -- 40
2018-05-19 13:00:00 23.9 12 Nordeste 22 Nordeste 0 -- -- 52
2018-05-19 12:00:00 23.6 14 Este 26 Este 0 -- -- 53
2018-05-19 11:00:00 21.5 12 Nordeste 21 Este 0 -- -- 61
2018-05-19 10:00:00 19.7 12 Nordeste 22 Este 0 -- -- 67
2018-05-19 09:00:00 17.1 6 Nordeste 11 Nordeste 0 -- -- 77
2018-05-19 08:00:00 13.6 4 Oeste 10 Nordeste 0 -- -- 90
2018-05-19 07:00:00 13.3 3 Oeste 5 Noroeste 0 -- -- 90
2018-05-19 06:00:00 13.9 3 Noroeste 8 Oeste 0 -- -- 91
2018-05-19 05:00:00 14.3 2 Noroeste 4 Oeste 0 -- -- 89
2018-05-19 04:00:00 14.9 0 Calma 8 Este 0 -- -- 86
2018-05-19 03:00:00 15.1 0 Calma 11 Norte 0 -- -- 86
2018-05-19 02:00:00 15.3 0 Calma 8 Este 0 -- -- 86
2018-05-19 01:00:00 15.4 2 Este 7 Este 0 -- -- 84
2018-05-19 00:00:00 16.4 0 Calma 10 Noroeste 0 -- -- 81
2018-05-18 23:00:00 16.7 3 Noroeste 6 Norte 0 -- -- 81
2018-05-18 22:00:00 17.6 4 Norte 18 Este 0 -- -- 77
2018-05-18 21:00:00 20.3 12 Este 22 Este 0 -- -- 63
2018-05-18 20:00:00 22 12 Norte 32 Norte 0 -- -- 53
2018-05-18 19:00:00 25.5 15 Sudoeste 32 Sudoeste 0 -- -- 47
2018-05-18 18:00:00 26.8 12 Sudoeste 20 Sudoeste 0 -- -- 47
2018-05-18 17:00:00 26.9 6 Sur 17 Sudeste 0 -- -- 42
2018-05-18 16:00:00 26.3 6 Sudoeste 25 Sudeste 0 -- -- 43
2018-05-18 15:00:00 25.3 5 Sudeste 15 Sudeste 0 -- -- 46
2018-05-18 14:00:00 23.8 9 Sudeste 21 Sudeste 0 -- -- 58
2018-05-18 13:00:00 23 5 Este 13 Sudeste 0 -- -- 59
2018-05-18 12:00:00 21.3 6 Nordeste 15 Este 0 -- -- 67
2018-05-18 11:00:00 19.1 10 Este 14 Nordeste 0 -- -- 79
2018-05-18 10:00:00 16.1 3 Este 9 Nordeste 0 -- -- 93
2018-05-18 09:00:00 15.1 2 Nordeste 10 Nordeste 0 -- -- 96
2018-05-18 08:00:00 13 0 Calma 4 Noroeste 0 -- -- 96
2018-05-18 07:00:00 12.8 0 Calma 5 Norte 0 -- -- 95
2018-05-18 06:00:00 13.2 2 Norte 5 Noroeste 0 -- -- 95
2018-05-18 05:00:00 14.1 2 Noroeste 8 Norte 0 -- -- 95
2018-05-18 04:00:00 14.3 5 Norte 9 Noroeste 0 -- -- 93
2018-05-18 03:00:00 15.3 4 Noroeste 10 Noroeste 0 -- -- 92
2018-05-18 02:00:00 15.7 5 Noroeste 8 Noroeste 0 -- -- 91
2018-05-18 01:00:00 16.2 5 Noroeste 14 Noroeste 0 -- -- 90
2018-05-18 00:00:00 16.5 7 Noroeste 11 Noroeste 0 -- -- 87
2018-05-17 23:00:00 17.4 8 Oeste 11 Noroeste 0 -- -- 82
2018-05-17 22:00:00 18.9 2 Oeste 36 Oeste 0 -- -- 77
2018-05-17 21:00:00 20.7 18 Oeste 26 Oeste 0 -- -- 67
2018-05-17 20:00:00 21.7 15 Sudoeste 32 Oeste 0 -- -- 62
2018-05-17 19:00:00 23.5 17 Sudoeste 35 Oeste 0 -- -- 54
2018-05-17 18:00:00 26.7 19 Sudoeste 34 Sudoeste 0 -- -- 45
2018-05-17 17:00:00 29.5 7 Sudoeste 17 Oeste 0 -- -- 31
2018-05-17 16:00:00 28.6 10 Sur 18 Sudeste 0 -- -- 34
2018-05-17 15:00:00 27.1 4 Nordeste 15 Norte 0 -- -- 35
2018-05-17 14:00:00 26.1 8 Nordeste 19 Nordeste 0 -- -- 40
2018-05-17 13:00:00 24.7 6 Nordeste 15 Nordeste 0 -- -- 44
2018-05-17 12:00:00 23.6 6 Sudeste 15 Este 0 -- -- 46
2018-05-17 11:00:00 21.8 7 Este 15 Este 0 -- -- 52
2018-05-17 10:00:00 19.2 5 Nordeste 12 Nordeste 0 -- -- 62
2018-05-17 09:00:00 15.4 0 Calma 5 Noroeste 0 -- -- 82
2018-05-17 08:00:00 12.2 2 Noroeste 4 Oeste 0 -- -- 89
2018-05-17 07:00:00 12.2 0 Calma 8 Noroeste 0 -- -- 90
2018-05-17 06:00:00 12.1 5 Noroeste 8 Noroeste 0 -- -- 89
2018-05-17 05:00:00 12.5 3 Noroeste 8 Noroeste 0 -- -- 86
2018-05-17 04:00:00 13.3 0 Calma 8 Norte 0 -- -- 84
2018-05-17 03:00:00 14.2 0 Calma 8 Noroeste 0 -- -- 81
2018-05-17 02:00:00 15.3 6 Oeste 14 Oeste 0 -- -- 77
2018-05-17 01:00:00 16.2 6 Oeste 14 Noroeste 0 -- -- 73
2018-05-17 00:00:00 17.2 9 Oeste 15 Noroeste 0 -- -- 67
2018-05-16 23:00:00 18.5 9 Noroeste 15 Noroeste 0 -- -- 61
2018-05-16 22:00:00 20.7 9 Noroeste 33 Sudoeste 0 -- -- 51
2018-05-16 21:00:00 27.2 8 Este 28 Sudoeste 0 -- -- 37
2018-05-16 20:00:00 29 6 Este 20 Este 0 -- -- 33
2018-05-16 19:00:00 29.5 12 Este 26 Este 0 -- -- 31
2018-05-16 18:00:00 29.7 15 Este 31 Sudeste 0 -- -- 29
2018-05-16 17:00:00 29.7 19 Nordeste 36 Nordeste 0 -- -- 32
2018-05-16 16:00:00 29.2 16 Nordeste 31 Este 0 -- -- 32
2018-05-16 15:00:00 28.9 17 Este 35 Este 0 -- -- 32
2018-05-16 14:00:00 28 15 Este 32 Este 0 -- -- 32
2018-05-16 13:00:00 26.5 17 Este 30 Este 0 -- -- 36
2018-05-16 12:00:00 24 16 Nordeste 24 Nordeste 0 -- -- 41
2018-05-16 11:00:00 21.6 13 Nordeste 25 Este 0 -- -- 49
2018-05-16 10:00:00 18.4 8 Nordeste 19 Nordeste 0 -- -- 57
2018-05-16 09:00:00 16.1 5 Nordeste 14 Norte 0 -- -- 61
2018-05-16 08:00:00 10.9 3 Norte 8 Noroeste 0 -- -- 85
2018-05-16 07:00:00 10.2 3 Noroeste 8 Noroeste 0 -- -- 85
2018-05-16 06:00:00 11 0 Calma 4 Este 0 -- -- 81
2018-05-16 05:00:00 12 2 Este 5 Sudeste 0 -- -- 79
2018-05-16 04:00:00 12.3 0 Calma 5 Noroeste 0 -- -- 78
2018-05-16 03:00:00 13.9 3 Norte 6 Norte 0 -- -- 70
2018-05-16 02:00:00 15.1 0 Calma 10 Norte 0 -- -- 67
2018-05-16 01:00:00 16.2 4 Norte 6 Noroeste 0 -- -- 64
2018-05-16 00:00:00 17.4 0 Calma 10 Este 0 -- -- 63
2018-05-15 23:00:00 18.4 4 Noroeste 13 Oeste 0 -- -- 63
2018-05-15 22:00:00 23.1 4 Oeste 12 Sudoeste 0 -- -- 50
2018-05-15 21:00:00 27.5 3 Sudeste 10 Este 0 -- -- 35
2018-05-15 20:00:00 28.4 6 Este 16 Este 0 -- -- 30
2018-05-15 19:00:00 28.7 6 Nordeste 21 Este 0 -- -- 28
2018-05-15 18:00:00 28.9 12 Nordeste 25 Este 0 -- -- 26
2018-05-15 17:00:00 28.9 10 Nordeste 31 Nordeste 0 -- -- 26
2018-05-15 16:00:00 27.9 11 Nordeste 27 Nordeste 0 -- -- 28
2018-05-15 15:00:00 27.8 12 Este 30 Nordeste 0 -- -- 30
2018-05-15 14:00:00 26.4 17 Nordeste 34 Nordeste 0 -- -- 31
2018-05-15 13:00:00 25.9 20 Este 33 Este 0 -- -- 32
2018-05-15 12:00:00 24 20 Nordeste 36 Este 0 -- -- 37
2018-05-15 11:00:00 22.6 23 Nordeste 37 Nordeste 0 -- -- 40
2018-05-15 10:00:00 20.1 14 Nordeste 24 Nordeste 0 -- -- 50
2018-05-15 09:00:00 17.7 11 Nordeste 19 Nordeste 0 -- -- 56
2018-05-15 08:00:00 16 8 Norte 18 Norte 0 -- -- 60
2018-05-15 07:00:00 15.6 10 Norte 18 Nordeste 0 -- -- 61
2018-05-15 06:00:00 16 7 Norte 17 Nordeste 0 -- -- 61
2018-05-15 05:00:00 16.8 13 Nordeste 21 Nordeste 0 -- -- 59
2018-05-15 04:00:00 16.9 10 Norte 18 Norte 0 -- -- 60
2018-05-15 03:00:00 17.5 9 Norte 19 Nordeste 0 -- -- 59
2018-05-15 02:00:00 17.7 8 Norte 15 Nordeste 0 -- -- 58
2018-05-15 01:00:00 17.8 5 Norte 13 Norte 0 -- -- 58
2018-05-15 00:00:00 18.5 8 Norte 14 Norte 0 -- -- 57
2018-05-14 23:00:00 19.6 9 Norte 13 Norte 0 -- -- 54
2018-05-14 22:00:00 21.7 6 Norte 18 Nordeste 0 -- -- 49
2018-05-14 21:00:00 24.6 9 Norte 28 Nordeste 0 -- -- 41
2018-05-14 20:00:00 26.1 10 Norte 25 Norte 0 -- -- 39
2018-05-14 19:00:00 26.4 13 Norte 25 Nordeste 0 -- -- 37
2018-05-14 18:00:00 27.5 14 Norte 30 Nordeste 0 -- -- 34
2018-05-14 17:00:00 27.8 9 Nordeste 30 Norte 0 -- -- 35
2018-05-14 16:00:00 26.9 8 Nordeste 22 Nordeste 0 -- -- 34
2018-05-14 15:00:00 25.5 7 Norte 24 Este 0 -- -- 35
2018-05-14 14:00:00 24.1 9 Este 24 Este 0 -- -- 37
2018-05-14 13:00:00 22.6 10 Nordeste 22 Nordeste 0 -- -- 39
2018-05-14 12:00:00 21.8 12 Este 30 Nordeste 0 -- -- 44
2018-05-14 11:00:00 19.1 15 Nordeste 25 Nordeste 0 -- -- 50
2018-05-14 10:00:00 17.1 11 Nordeste 21 Nordeste 0 -- -- 56
2018-05-14 09:00:00 15 8 Nordeste 13 Nordeste 0 -- -- 60
2018-05-14 08:00:00 11.1 2 Sudeste 13 Noroeste 0 -- -- 75
2018-05-14 07:00:00 9.2 5 Noroeste 8 Noroeste 0 -- -- 81
2018-05-14 06:00:00 9.5 3 Noroeste 13 Oeste 0 -- -- 79
2018-05-14 05:00:00 9.8 3 Norte 9 Noroeste 0 -- -- 77
2018-05-14 04:00:00 10.6 6 Noroeste 9 Noroeste 0 -- -- 74
2018-05-14 03:00:00 10.8 5 Noroeste 9 Noroeste 0 -- -- 73
2018-05-14 02:00:00 12.9 6 Norte 12 Norte 0 -- -- 61
2018-05-14 01:00:00 11.7 6 Oeste 7 Oeste 0 -- -- 69
2018-05-11 20:00:00 -- -- -- -- -- -- -- -- --
2018-05-11 19:00:00 22.9 13 Sur 26 Sur 0 -- -- 55
2018-05-11 18:00:00 23.4 14 Sur 27 Sur 0 -- -- 53
2018-05-11 17:00:00 24.4 11 Sudoeste 28 Sudoeste 0 -- -- 52
2018-05-11 16:00:00 24.1 10 Oeste 21 Oeste 0 -- -- 46
2018-05-11 15:00:00 22.9 10 Sur 20 Sudoeste 0 -- -- 49
2018-05-11 14:00:00 21.6 6 Sur 22 Sudoeste 0 -- -- 54
2018-05-11 13:00:00 20 6 Sudeste 17 Este 0 -- -- 56
2018-05-11 12:00:00 18.7 6 Este 16 Sudeste 0 -- -- 62
2018-05-11 11:00:00 16.3 4 Sur 12 Sudeste 0 -- -- 73
2018-05-11 10:00:00 14.1 2 Sudeste 6 Sudeste 0 -- -- 91
2018-05-11 09:00:00 11.8 0 Calma 5 Sudeste 0 -- -- 97
2018-05-11 08:00:00 9.7 0 Calma 5 Noroeste 0 -- -- 97
2018-05-11 07:00:00 9.6 0 Calma 6 Noroeste 0 -- -- 97
2018-05-11 06:00:00 9.2 0 Calma 3 Noroeste 0 -- -- 96
2018-05-11 05:00:00 9.2 0 Calma 4 Noroeste 0 -- -- 95
2018-05-11 04:00:00 10 0 Calma 3 Este 0 -- -- 93
2018-05-11 03:00:00 10.6 0 Calma 4 Sur 0 -- -- 92
2018-05-11 02:00:00 11.1 4 Sur 7 Sudeste 0 -- -- 92
2018-05-11 01:00:00 12.7 0 Calma 2 Norte 0 -- -- 91
2018-05-11 00:00:00 13.5 0 Calma 7 Oeste 0 -- -- 88
2018-05-10 23:00:00 14.3 4 Oeste 9 Sudoeste 0 -- -- 86
2018-05-10 22:00:00 16 5 Sudoeste 12 Sur 0 -- -- 77
2018-05-10 21:00:00 18.6 8 Sudoeste 18 Sudoeste 0 -- -- 66
2018-05-10 20:00:00 20.5 12 Sudoeste 26 Sudoeste 0 -- -- 57
2018-05-10 19:00:00 21.8 15 Sudoeste 24 Sudoeste 0 -- -- 51
2018-05-10 18:00:00 22.3 11 Sudoeste 21 Sur 0 -- -- 47
2018-05-10 17:00:00 22.7 13 Sur 26 Sudoeste 0 -- -- 45
2018-05-10 16:00:00 22.8 10 Sur 24 Sur 0 -- -- 43
2018-05-10 15:00:00 22.7 13 Sudoeste 22 Sur 0 -- -- 42
2018-05-10 14:00:00 22.1 9 Sudoeste 23 Sudoeste 0 -- -- 49
2018-05-10 13:00:00 20.9 10 Sudoeste 21 Sudoeste 0 -- -- 53
2018-05-10 12:00:00 19.2 10 Sur 18 Sur 0 -- -- 55
2018-05-10 11:00:00 16.7 6 Sur 10 Sudeste 0 -- -- 77
2018-05-10 10:00:00 13.9 0 Calma 11 Noroeste 0 -- -- 84
2018-05-10 09:00:00 13 7 Oeste 14 Noroeste 0 -- -- 88
2018-05-10 08:00:00 12.6 3 Oeste 10 Oeste 0 -- -- 90
2018-05-10 07:00:00 13.5 5 Noroeste 9 Noroeste 0 -- -- 88
2018-05-10 06:00:00 14 10 Oeste 18 Oeste 0 -- -- 86
2018-05-10 05:00:00 14.5 6 Noroeste 17 Oeste 0 -- -- 87
2018-05-10 04:00:00 15.1 11 Oeste 17 Oeste 0 -- -- 87
2018-05-10 03:00:00 15.6 4 Oeste 12 Sudoeste 0 -- -- 88
2018-05-10 02:00:00 16.1 4 Sudoeste 8 Sudoeste 0 -- -- 91
2018-05-10 01:00:00 16.1 4 Sudoeste 12 Sudoeste 0 -- -- 92
2018-05-10 00:00:00 16.2 2 Sur 10 Sudoeste 0 -- -- 91
2018-05-09 23:00:00 16.4 5 Sudoeste 14 Sudoeste 0 -- -- 89
2018-05-09 22:00:00 17.1 9 Sudoeste 23 Sudoeste 0 -- -- 86
2018-05-09 21:00:00 18.4 12 Sudoeste 23 Sudoeste 0 -- -- 80
2018-05-09 20:00:00 20.1 14 Sudoeste 31 Oeste 0 -- -- 73
2018-05-09 19:00:00 22.1 17 Oeste 29 Oeste 0 -- -- 67
2018-05-09 18:00:00 23.2 10 Oeste 26 Oeste 0 -- -- 60
2018-05-09 17:00:00 21.8 10 Oeste 19 Oeste 0 -- -- 67
2018-05-09 16:00:00 21.6 8 Sudoeste 16 Sudoeste 0 -- -- 74
2018-05-09 15:00:00 19.3 3 Oeste 11 Oeste 0 -- -- 89
2018-05-09 14:00:00 18.2 7 Noroeste 12 Oeste 0 -- -- 93
2018-05-09 13:00:00 17.7 5 Sudeste 12 Este 0 -- -- 93
2018-05-09 12:00:00 17.2 8 Sudeste 15 Sudeste 0 -- -- 96
2018-05-09 11:00:00 16.8 9 Sudeste 14 Sudeste 0 -- -- 97
2018-05-09 10:00:00 16.7 7 Sur 14 Sur 0 -- -- 98
2018-05-09 09:00:00 16.3 8 Sudeste 15 Sudeste 0 -- -- 98
2018-05-09 08:00:00 16.3 5 Sudeste 9 Sudeste 0.2 -- -- 98
2018-05-09 07:00:00 16.7 5 Sudeste 8 Sudeste 0 -- -- 96
2018-05-09 06:00:00 16.7 2 Sudoeste 12 Sur 0 -- -- 96
2018-05-09 05:00:00 16.5 7 Sur 14 Sudoeste 0 -- -- 95
2018-05-09 04:00:00 16.8 5 Sudeste 9 Sudeste 0 -- -- 96
2018-05-09 03:00:00 16.8 4 Sur 13 Sudeste 0 -- -- 95
2018-05-09 02:00:00 16.9 6 Sur 14 Sudoeste 0 -- -- 95
2018-05-09 01:00:00 16.9 4 Sur 20 Sur 0.2 -- -- 94
2018-05-09 00:00:00 17.2 9 Sudoeste 16 Sudoeste 0 -- -- 93
2018-05-08 23:00:00 17.9 5 Sudeste 9 Este 0.2 -- -- 90
2018-05-08 22:00:00 18.6 4 Oeste 8 Oeste 0 -- -- 87
2018-05-08 21:00:00 19.5 2 Oeste 9 Oeste 0 -- -- 82
2018-05-08 20:00:00 20.4 5 Sur 9 Sur 0 -- -- 75
2018-05-08 19:00:00 21.2 4 Noroeste 25 Sudoeste 0 -- -- 73
2018-05-08 18:00:00 23.8 15 Oeste 24 Oeste 0 -- -- 68
2018-05-08 17:00:00 24.7 12 Oeste 20 Sudoeste 0 -- -- 66
2018-05-08 16:00:00 25.3 10 Oeste 29 Oeste 0 -- -- 64
2018-05-08 15:00:00 25.4 12 Oeste 20 Oeste 0 -- -- 61
2018-05-08 14:00:00 22.6 4 Sudoeste 12 Oeste 0 -- -- 74
2018-05-08 13:00:00 20.2 5 Oeste 12 Sudoeste 0 -- -- 83
2018-05-08 12:00:00 18 5 Sudeste 16 Sudeste 0.2 -- -- 90
2018-05-08 11:00:00 15.5 4 Este 17 Noroeste 2 -- -- 96
2018-05-08 10:00:00 15.9 6 Norte 11 Norte 0 -- -- 89
2018-05-08 09:00:00 14.6 0 Calma 7 Este 0 -- -- 94
2018-05-08 08:00:00 12.9 3 Este 6 Sur 0 -- -- 95
2018-05-08 07:00:00 12.4 3 Noroeste 6 Sudeste 0 -- -- 94
2018-05-08 06:00:00 13 2 Oeste 5 Este 0 -- -- 92
2018-05-08 05:00:00 13.6 2 Sur 7 Sudeste 0 -- -- 91
2018-05-08 04:00:00 14 4 Sudeste 7 Sur 0 -- -- 89
2018-05-08 03:00:00 15.1 0 Calma 9 Noroeste 0 -- -- 84
2018-05-08 02:00:00 15.5 2 Sudoeste 9 Noroeste 0 -- -- 83
2018-05-08 01:00:00 16.1 6 Oeste 14 Oeste 0 -- -- 81
2018-05-08 00:00:00 16.6 5 Oeste 15 Oeste 0 -- -- 81
2018-05-07 23:00:00 17 5 Oeste 15 Oeste 0 -- -- 79
2018-05-07 22:00:00 18.3 6 Oeste 16 Oeste 0 -- -- 74
2018-05-07 21:00:00 20.1 11 Oeste 19 Oeste 0 -- -- 66
2018-05-07 20:00:00 22 14 Oeste 21 Oeste 0 -- -- 58
2018-05-07 19:00:00 24.6 12 Oeste 23 Oeste 0 -- -- 53
2018-05-07 18:00:00 27.1 11 Oeste 28 Oeste 0 -- -- 46
2018-05-07 17:00:00 27.8 12 Oeste 22 Oeste 0 -- -- 42
2018-05-07 16:00:00 27.4 6 Noroeste 19 Oeste 0 -- -- 43
2018-05-07 15:00:00 26 6 Sudoeste 14 Sudoeste 0 -- -- 44
2018-05-07 14:00:00 25.6 7 Este 18 Oeste 0 -- -- 46
2018-05-07 13:00:00 24.5 6 Sur 14 Sur 0 -- -- 49
2018-05-07 12:00:00 23.2 4 Este 16 Este 0 -- -- 48
2018-05-07 11:00:00 21.9 10 Este 19 Este 0 -- -- 54
2018-05-07 10:00:00 19.3 6 Este 14 Nordeste 0 -- -- 69
2018-05-07 09:00:00 14.8 3 Norte 6 Norte 0 -- -- 85
2018-05-07 08:00:00 12.4 4 Noroeste 9 Norte 0 -- -- 90
2018-05-07 07:00:00 14 3 Norte 12 Nordeste 0 -- -- 83
2018-05-07 06:00:00 15.2 7 Nordeste 17 Nordeste 0 -- -- 82
2018-05-07 05:00:00 13.6 3 Noroeste 10 Nordeste 0 -- -- 90
2018-05-07 04:00:00 13.3 3 Noroeste 8 Noroeste 0 -- -- 91
2018-05-07 03:00:00 14.3 2 Noroeste 5 Noroeste 0 -- -- 89
2018-05-07 02:00:00 14.3 2 Norte 9 Noroeste 0 -- -- 86
2018-05-07 01:00:00 14.9 8 Noroeste 10 Noroeste 0 -- -- 85
2018-05-07 00:00:00 17.4 0 Calma 7 Oeste 0 -- -- 75
2018-05-06 23:00:00 19 3 Sudoeste 9 Noroeste 0 -- -- 70
2018-05-06 22:00:00 20.7 4 Norte 19 Norte 0 -- -- 62
2018-05-06 21:00:00 21.8 4 Noroeste 28 Oeste 0 -- -- 58
2018-05-06 20:00:00 26.3 7 Nordeste 24 Sudeste 0 -- -- 42
2018-05-06 19:00:00 27.6 10 Este 23 Este 0 -- -- 37
2018-05-06 18:00:00 27.5 13 Este 25 Este 0 -- -- 40
2018-05-06 17:00:00 28 15 Este 29 Este 0 -- -- 38
2018-05-06 16:00:00 27.9 17 Este 35 Este 0 -- -- 38
2018-05-06 15:00:00 27.4 20 Este 35 Este 0 -- -- 40
2018-05-06 14:00:00 26.4 19 Este 33 Este 0 -- -- 41
2018-05-06 13:00:00 25.4 19 Este 33 Este 0 -- -- 44
2018-05-06 12:00:00 23.8 19 Este 29 Este 0 -- -- 45
2018-05-06 11:00:00 21 18 Este 29 Este 0 -- -- 57
2018-05-06 10:00:00 18.3 14 Nordeste 23 Nordeste 0 -- -- 69
2018-05-06 09:00:00 15.6 10 Nordeste 23 Nordeste 0 -- -- 80
2018-05-06 08:00:00 13.2 4 Noroeste 18 Norte 0 -- -- 89
2018-05-06 07:00:00 11.7 3 Norte 8 Norte 0 -- -- 94
2018-05-06 06:00:00 11.8 4 Noroeste 8 Noroeste 0 -- -- 92
2018-05-06 05:00:00 12.2 3 Noroeste 6 Noroeste 0 -- -- 88
2018-05-06 04:00:00 13.4 3 Norte 5 Noroeste 0 -- -- 83
2018-05-06 03:00:00 16.1 0 Calma 13 Oeste 0 -- -- 73
2018-05-06 02:00:00 16.4 9 Oeste 15 Oeste 0 -- -- 68
2018-05-06 01:00:00 15.4 4 Sudoeste 11 Sudoeste 0 -- -- 79
2018-05-06 00:00:00 16.3 3 Este 8 Noroeste 0 -- -- 78
2018-05-05 23:00:00 17.1 6 Noroeste 9 Noroeste 0 -- -- 74
2018-05-05 22:00:00 19.3 5 Noroeste 14 Oeste 0 -- -- 71
2018-05-05 21:00:00 24.2 12 Oeste 16 Oeste 0 -- -- 53
2018-05-05 20:00:00 26.6 6 Oeste 12 Sur 0 -- -- 41
2018-05-05 19:00:00 27.2 4 Sur 16 Oeste 0 -- -- 38
2018-05-05 18:00:00 26.9 4 Sudeste 18 Este 0 -- -- 38
2018-05-05 17:00:00 26.6 5 Nordeste 16 Sudoeste 0 -- -- 40
2018-05-05 16:00:00 26.2 6 Sur 17 Sudoeste 0 -- -- 40
2018-05-05 15:00:00 25.3 5 Este 16 Sudeste 0 -- -- 43
2018-05-05 14:00:00 24 4 Sur 14 Este 0 -- -- 52
2018-05-05 13:00:00 22.5 4 Nordeste 13 Nordeste 0 -- -- 54
2018-05-05 12:00:00 20.7 4 Norte 12 Nordeste 0 -- -- 58
2018-05-05 11:00:00 18.3 6 Nordeste 15 Norte 0 -- -- 72
2018-05-05 10:00:00 15.7 5 Nordeste 13 Nordeste 0 -- -- 88
2018-05-05 09:00:00 13.4 2 Norte 8 Este 0 -- -- 99
2018-05-05 08:00:00 9.9 2 Noroeste 6 Nordeste 0 -- -- 98
2018-05-05 07:00:00 9.4 3 Oeste 5 Noroeste 0 -- -- 97
2018-05-05 06:00:00 9.4 2 Oeste 6 Noroeste 0 -- -- 97
2018-05-05 05:00:00 9.7 5 Noroeste 6 Noroeste 0 -- -- 96
2018-05-05 04:00:00 10.3 0 Calma 3 Oeste 0 -- -- 95
2018-05-05 03:00:00 11 0 Calma 5 Noroeste 0 -- -- 95
2018-05-05 02:00:00 11.6 3 Oeste 5 Noroeste 0 -- -- 94
2018-05-05 01:00:00 12.8 0 Calma 3 Sudeste 0 -- -- 93
2018-05-05 00:00:00 13.6 0 Calma 3 Sudoeste 0 -- -- 91
2018-05-04 23:00:00 14.5 0 Calma 5 Noroeste 0 -- -- 91
2018-05-04 22:00:00 15.5 0 Calma 12 Sudeste 0 -- -- 90
2018-05-04 21:00:00 16.3 6 Sur 30 Sudeste 0 -- -- 87
2018-05-04 20:00:00 18 15 Sur 35 Sudeste 0 -- -- 80
2018-05-04 19:00:00 21.8 24 Sur 37 Sur 0 -- -- 66
2018-05-04 18:00:00 24.9 6 Nordeste 14 Nordeste 0 -- -- 42
2018-05-04 17:00:00 25.7 5 Noroeste 15 Oeste 0 -- -- 43
2018-05-04 16:00:00 24.5 5 Oeste 13 Este 0 -- -- 47
2018-05-04 15:00:00 24.4 6 Sur 17 Sudoeste 0 -- -- 50
2018-05-04 14:00:00 22.6 8 Sudeste 16 Sudeste 0 -- -- 57
2018-05-04 13:00:00 21.2 7 Sudeste 24 Este 0 -- -- 64
2018-05-04 12:00:00 19.7 4 Este 18 Este 0 -- -- 69
2018-05-04 11:00:00 19 11 Este 18 Nordeste 0 -- -- 68
2018-05-04 10:00:00 16.4 9 Nordeste 17 Nordeste 0 -- -- 81
2018-05-04 09:00:00 12.5 2 Oeste 4 Noroeste 0 -- -- 94
2018-05-04 08:00:00 10.4 0 Calma 3 Sur 0 -- -- 93
2018-05-04 07:00:00 11.4 2 Este 8 Sudeste 0 -- -- 94
2018-05-04 06:00:00 12 0 Calma 12 Noroeste 0 -- -- 91
2018-05-04 05:00:00 12.6 4 Noroeste 8 Noroeste 0 -- -- 91
2018-05-04 04:00:00 12.1 0 Calma 8 Noroeste 0 -- -- 91
2018-05-04 03:00:00 13.4 0 Calma 11 Sudeste 0 -- -- 88
2018-05-04 02:00:00 14.1 4 Noroeste 12 Noroeste 0 -- -- 86
2018-05-04 01:00:00 14.9 3 Noroeste 7 Norte 0 -- -- 85
2018-05-04 00:00:00 15.3 3 Noroeste 6 Noroeste 0 -- -- 84
2018-05-03 23:00:00 16.4 4 Noroeste 9 Noroeste 0 -- -- 76
2018-05-03 22:00:00 17.7 4 Sudoeste 12 Oeste 0 -- -- 68
2018-05-03 21:00:00 18.6 4 Oeste 28 Oeste 0 -- -- 64
2018-05-03 20:00:00 21 16 Oeste 30 Sudoeste 0 -- -- 56
2018-05-03 19:00:00 24.3 18 Oeste 31 Oeste 0 -- -- 50
2018-05-03 18:00:00 24.3 8 Oeste 13 Oeste 0 -- -- 44
2018-05-03 17:00:00 24.7 8 Oeste 23 Oeste 0 -- -- 42
2018-05-03 16:00:00 24.8 8 Oeste 16 Oeste 0 -- -- 43
2018-05-03 15:00:00 23.5 3 Oeste 14 Noroeste 0 -- -- 44
2018-05-03 14:00:00 22.6 8 Oeste 15 Oeste 0 -- -- 47
2018-05-03 13:00:00 21.1 5 Este 10 Este 0 -- -- 47
2018-05-03 12:00:00 19.8 4 Sudeste 10 Este 0 -- -- 52
2018-05-03 11:00:00 17.1 3 Noroeste 7 Este 0 -- -- 64
2018-05-03 10:00:00 15.4 5 Este 8 Este 0 -- -- 69
2018-05-03 09:00:00 10.3 0 Calma 5 Noroeste 0 -- -- 95
2018-05-03 08:00:00 6.8 3 Noroeste 4 Oeste 0 -- -- 95
2018-05-03 07:00:00 7.2 2 Noroeste 6 Noroeste 0 -- -- 95
2018-05-03 06:00:00 7.5 2 Noroeste 4 Oeste 0 -- -- 94
2018-05-03 05:00:00 8.5 2 Noroeste 6 Norte 0 -- -- 93
2018-05-03 04:00:00 8.8 2 Noroeste 7 Oeste 0 -- -- 93
2018-05-03 03:00:00 9.5 5 Oeste 8 Oeste 0 -- -- 91
2018-05-03 02:00:00 10.3 2 Noroeste 4 Noroeste 0 -- -- 90
2018-05-03 01:00:00 11.2 0 Calma 10 Noroeste 0 -- -- 88
2018-05-03 00:00:00 11.7 5 Noroeste 12 Noroeste 0 -- -- 83
2018-05-02 23:00:00 12.4 3 Noroeste 12 Oeste 0 -- -- 78
2018-05-02 22:00:00 13.8 6 Noroeste 18 Oeste 0 -- -- 71
2018-05-02 21:00:00 16.1 15 Oeste 24 Oeste 0 -- -- 60
2018-05-02 20:00:00 18.6 17 Sudoeste 30 Sudoeste 0 -- -- 50
2018-05-02 19:00:00 19.9 16 Sudoeste 28 Oeste 0 -- -- 43
2018-05-02 18:00:00 20.8 8 Oeste 21 Oeste 0 -- -- 32
2018-05-02 17:00:00 20.9 12 Oeste 24 Oeste 0 -- -- 33
2018-05-02 16:00:00 21.3 9 Sudoeste 21 Sur 0 -- -- 38
2018-05-02 15:00:00 20.6 9 Sudoeste 24 Oeste 0 -- -- 39
2018-05-02 14:00:00 19.6 11 Oeste 22 Oeste 0 -- -- 45
2018-05-02 13:00:00 18 4 Sudeste 13 Sudeste 0 -- -- 50
2018-05-02 12:00:00 16.3 3 Sudoeste 9 Sur 0 -- -- 52
2018-05-02 11:00:00 14 3 Nordeste 9 Nordeste 0 -- -- 66
2018-05-02 10:00:00 10.9 4 Norte 7 Norte 0 -- -- 85
2018-05-02 09:00:00 7.6 0 Calma 5 Noroeste 0 -- -- 97
2018-05-02 08:00:00 5.8 2 Norte 8 Noroeste 0 -- -- 97
2018-05-02 07:00:00 5.8 3 Oeste 5 Oeste 0 -- -- 95
2018-05-02 06:00:00 6.5 0 Calma 3 Sudoeste 0 -- -- 94
2018-05-02 05:00:00 7.2 0 Calma 5 Norte 0 -- -- 93
2018-05-02 04:00:00 7.7 2 Noroeste 6 Norte 0 -- -- 92
2018-05-02 03:00:00 8.4 0 Calma 9 Noroeste 0 -- -- 91
2018-05-02 02:00:00 8.9 0 Calma 6 Noroeste 0 -- -- 91
2018-05-02 01:00:00 9.7 3 Norte 7 Noroeste 0 -- -- 89
2018-05-02 00:00:00 9.5 5 Noroeste 7 Noroeste 0 -- -- 88
2018-05-01 23:00:00 10.9 0 Calma 5 Oeste 0 -- -- 84
2018-05-01 22:00:00 12.2 3 Oeste 7 Sudoeste 0 -- -- 77
2018-05-01 21:00:00 14.5 3 Sudoeste 11 Sudoeste 0 -- -- 68
2018-05-01 20:00:00 14.8 2 Sudoeste 5 Oeste 0 -- -- 59
2018-05-01 19:00:00 15.3 4 Este 34 Nordeste 0 -- -- 60
2018-05-01 18:00:00 14.4 19 Nordeste 35 Nordeste 0 -- -- 74
2018-05-01 17:00:00 15.9 14 Sudeste 24 Este 0 -- -- 64
2018-05-01 16:00:00 14 7 Norte 44 Norte 2 -- -- 75
2018-05-01 15:00:00 19.3 15 Oeste 28 Oeste 0 -- -- 48
2018-05-01 14:00:00 17.5 11 Oeste 25 Oeste 0 -- -- 53
2018-05-01 13:00:00 16.4 15 Oeste 26 Oeste 0 -- -- 56
2018-05-01 12:00:00 15.7 8 Oeste 24 Oeste 0 -- -- 60
2018-05-01 11:00:00 14.5 6 Noroeste 18 Oeste 0 -- -- 72
2018-05-01 10:00:00 12.5 5 Noroeste 10 Noroeste 0 -- -- 84
2018-05-01 09:00:00 9.5 0 Calma 5 Sudeste 0 -- -- 94
2018-05-01 08:00:00 6.7 0 Calma 4 Norte 0 -- -- 97
2018-05-01 07:00:00 6.7 0 Calma 3 Oeste 0 -- -- 95
2018-05-01 06:00:00 7.3 3 Noroeste 6 Noroeste 0 -- -- 94
2018-05-01 05:00:00 8 2 Noroeste 6 Noroeste 0 -- -- 94
2018-05-01 04:00:00 8.2 2 Noroeste 10 Noroeste 0 -- -- 93
2018-05-01 03:00:00 8.8 3 Noroeste 10 Noroeste 0 -- -- 92
2018-05-01 02:00:00 9.4 3 Noroeste 11 Noroeste 0 -- -- 93
2018-05-01 01:00:00 10.1 3 Noroeste 8 Noroeste 0 -- -- 89
2018-05-01 00:00:00 10.8 3 Noroeste 10 Noroeste 0 -- -- 87
2018-04-30 23:00:00 11.2 2 Noroeste 6 Noroeste 0 -- -- 85
2018-04-30 22:00:00 12.6 3 Oeste 23 Sudoeste 0 -- -- 77
2018-04-30 21:00:00 14.8 16 Oeste 30 Oeste 0 -- -- 66
2018-04-30 20:00:00 17.9 13 Oeste 23 Oeste 0 -- -- 52
2018-04-30 19:00:00 18.4 14 Oeste 28 Oeste 0 -- -- 50
2018-04-30 18:00:00 18 12 Oeste 22 Oeste 0 -- -- 51
2018-04-30 17:00:00 17.4 10 Oeste 18 Oeste 0 -- -- 54
2018-04-30 16:00:00 17 5 Oeste 23 Oeste 0 -- -- 57
2018-04-30 15:00:00 16.3 9 Noroeste 22 Noroeste 0 -- -- 59
2018-04-30 14:00:00 15.7 10 Oeste 21 Sudoeste 0 -- -- 59
2018-04-30 13:00:00 15 8 Oeste 17 Oeste 0 -- -- 64
2018-04-30 12:00:00 14.2 5 Noroeste 14 Noroeste 0 -- -- 65
2018-04-30 11:00:00 13.6 3 Sur 9 Este 0 -- -- 68
2018-04-30 10:00:00 12.2 4 Sudeste 8 Sudeste 0 -- -- 76
2018-04-30 09:00:00 7.6 0 Calma 3 Noroeste 0 -- -- 96
2018-04-30 08:00:00 5.3 0 Calma 3 Oeste 0 -- -- 96
2018-04-30 07:00:00 5.4 0 Calma 5 Norte 0 -- -- 96
2018-04-30 06:00:00 5.8 0 Calma 3 Noroeste 0 -- -- 95
2018-04-30 05:00:00 6.3 2 Oeste 5 Norte 0 -- -- 93
2018-04-30 04:00:00 6.8 4 Noroeste 6 Norte 0 -- -- 93
2018-04-30 03:00:00 7.4 0 Calma 7 Noroeste 0 -- -- 91
2018-04-30 02:00:00 7.9 3 Noroeste 7 Noroeste 0 -- -- 89
2018-04-30 01:00:00 8.3 2 Noroeste 7 Noroeste 0 -- -- 88
2018-04-30 00:00:00 8.9 0 Calma 10 Noroeste 0 -- -- 86
2018-04-29 23:00:00 10.9 6 Noroeste 15 Oeste 0 -- -- 78
2018-04-29 22:00:00 12.1 4 Oeste 18 Oeste 0 -- -- 76
2018-04-29 21:00:00 14.6 11 Oeste 25 Oeste 0 -- -- 63
2018-04-29 20:00:00 16.2 15 Oeste 29 Oeste 0 -- -- 63
2018-04-29 19:00:00 16.4 18 Oeste 38 Oeste 0 -- -- 65
2018-04-29 18:00:00 15.3 13 Oeste 36 Oeste 0.8 -- -- 77
2018-04-29 17:00:00 14.9 20 Oeste 37 Oeste 0.6 -- -- 78
2018-04-29 16:00:00 18.1 15 Sudoeste 35 Sudoeste 0 -- -- 54
2018-04-29 15:00:00 16.6 21 Oeste 47 Oeste 0 -- -- 58
2018-04-29 14:00:00 17.4 19 Oeste 40 Oeste 0 -- -- 49
2018-04-29 13:00:00 17.3 21 Oeste 34 Oeste 0 -- -- 54
2018-04-29 12:00:00 15.2 22 Oeste 36 Oeste 0 -- -- 61
2018-04-29 11:00:00 14 21 Oeste 32 Oeste 0 -- -- 69
2018-04-29 10:00:00 12.2 19 Oeste 30 Oeste 0 -- -- 79
2018-04-29 09:00:00 9.8 5 Oeste 12 Oeste 0 -- -- 90
2018-04-29 08:00:00 7.7 5 Sudoeste 9 Sudoeste 0 -- -- 94
2018-04-29 07:00:00 7.5 5 Noroeste 10 Noroeste 0 -- -- 93
2018-04-29 06:00:00 7.8 5 Oeste 11 Noroeste 0 -- -- 93
2018-04-29 05:00:00 7.9 4 Noroeste 12 Noroeste 0 -- -- 94
2018-04-29 04:00:00 8 0 Calma 8 Sudoeste 0 -- -- 94
2018-04-29 03:00:00 8.4 4 Oeste 8 Sudoeste 0 -- -- 94
2018-04-29 02:00:00 8.9 3 Sudoeste 12 Oeste 0 -- -- 91
2018-04-29 01:00:00 9.7 8 Oeste 17 Oeste 0 -- -- 90
2018-04-29 00:00:00 10.4 11 Oeste 19 Oeste 0.2 -- -- 89
2018-04-28 23:00:00 12 14 Oeste 34 Oeste 0.2 -- -- 83
2018-04-28 22:00:00 13.2 9 Sudoeste 29 Sudoeste 0 -- -- 76
2018-04-28 21:00:00 14.3 17 Sudoeste 32 Sudoeste 0 -- -- 71
2018-04-28 20:00:00 16 15 Sudoeste 33 Sudoeste 0 -- -- 62
2018-04-28 19:00:00 16.8 19 Sudoeste 40 Oeste 0 -- -- 57
2018-04-28 18:00:00 18.3 21 Sudoeste 36 Oeste 0 -- -- 52
2018-04-28 17:00:00 18.7 18 Oeste 32 Oeste 0 -- -- 53
2018-04-28 16:00:00 19.2 17 Oeste 35 Oeste 0 -- -- 45
2018-04-28 15:00:00 18.7 21 Oeste 39 Oeste 0 -- -- 47
2018-04-28 14:00:00 17.8 19 Oeste 34 Oeste 0 -- -- 50
2018-04-28 13:00:00 17.3 16 Oeste 34 Noroeste 0 -- -- 53
2018-04-28 12:00:00 16.7 14 Oeste 27 Oeste 0 -- -- 53
2018-04-28 11:00:00 15.1 12 Oeste 23 Noroeste 0 -- -- 60
2018-04-28 10:00:00 13.4 13 Noroeste 18 Noroeste 0 -- -- 67
2018-04-28 09:00:00 11.4 5 Noroeste 17 Noroeste 0 -- -- 89
2018-04-28 08:00:00 10.4 5 Noroeste 15 Oeste 0 -- -- 94
2018-04-28 07:00:00 11 9 Noroeste 14 Noroeste 0 -- -- 94
2018-04-28 06:00:00 11.4 8 Noroeste 12 Noroeste 0 -- -- 94
2018-04-28 05:00:00 12 9 Noroeste 12 Noroeste 0 -- -- 94
2018-04-28 04:00:00 12.5 5 Noroeste 13 Noroeste 0 -- -- 93
2018-04-28 03:00:00 13.1 7 Noroeste 13 Noroeste 0 -- -- 92
2018-04-28 02:00:00 14.1 10 Noroeste 14 Noroeste 0 -- -- 90
2018-04-28 01:00:00 14 5 Noroeste 10 Noroeste 0 -- -- 89
2018-04-28 00:00:00 14.6 3 Noroeste 8 Noroeste 0 -- -- 86